Time;durP1;ratioP1;P1;durP2;ratioP2;P2;SDS_P1;SDS_P2;PMS_P1;PMS_P2;Temp;Humidity;BMP_temperature;BMP_pressure;BME280_temperature;BME280_humidity;BME280_pressure;Samples;Min_cycle;Max_cycle;Signal;HPM_P1;HPM_P2
2022/06/16 00:00:17;;;;;;;8.93;3.88;;;410.40;2355.20;;;;;;5070271;28;20044;-55
2022/06/16 00:02:49;;;;;;;6.25;4.50;;;410.30;2355.20;;;;;;5070261;28;20514;-56
2022/06/16 00:05:19;;;;;;;5.03;4.00;;;410.20;2355.20;;;;;;5070344;28;20027;-54
2022/06/16 00:07:45;;;;;;;5.07;3.45;;;410.30;2355.20;;;;;;5070470;28;20044;-55
2022/06/16 00:10:12;;;;;;;7.60;4.25;;;410.10;2355.20;;;;;;5070648;28;20020;-55
2022/06/16 00:12:39;;;;;;;7.05;4.22;;;410.20;2355.20;;;;;;5070190;28;20545;-55
2022/06/16 00:15:09;;;;;;;7.63;4.38;;;410.20;2355.20;;;;;;5070243;28;20051;-54
2022/06/16 00:17:35;;;;;;;5.90;3.75;;;410.20;2355.20;;;;;;5070254;28;20029;-55
2022/06/16 00:20:04;;;;;;;5.25;4.20;;;410.20;2355.20;;;;;;5069966;28;20455;-55
2022/06/16 00:22:31;;;;;;;5.90;3.40;;;410.10;2355.20;;;;;;5070289;28;20024;-55
2022/06/16 00:24:56;;;;;;;6.18;4.47;;;410.10;2355.20;;;;;;5070363;28;20020;-55
2022/06/16 00:27:22;;;;;;;5.75;4.15;;;410.00;2355.20;;;;;;5069882;28;20532;-54
2022/06/16 00:29:48;;;;;;;5.88;3.70;;;410.00;2355.20;;;;;;5070061;28;20028;-55
2022/06/16 00:32:13;;;;;;;5.35;3.75;;;410.00;2355.20;;;;;;5069936;28;20119;-55
2022/06/16 00:34:39;;;;;;;8.38;3.97;;;410.00;2355.20;;;;;;5070041;28;20036;-54
2022/06/16 00:37:05;;;;;;;7.72;4.38;;;410.00;2355.20;;;;;;5069997;28;20379;-54
2022/06/16 00:39:30;;;;;;;9.65;4.43;;;410.00;2355.20;;;;;;5069711;28;20029;-55
2022/06/16 00:42:05;;;;;;;5.35;3.60;;;409.90;2355.20;;;;;;5070056;28;20037;-54
2022/06/16 00:44:31;;;;;;;7.25;3.88;;;409.90;2355.20;;;;;;5069804;28;20035;-55
2022/06/16 00:46:56;;;;;;;6.07;3.72;;;409.90;2355.20;;;;;;5069736;28;20036;-56
2022/06/16 00:49:23;;;;;;;7.47;3.85;;;409.90;2355.20;;;;;;5069974;28;20455;-54
2022/06/16 00:51:59;;;;;;;7.35;4.10;;;409.70;2355.20;;;;;;5069778;28;20108;-54
2022/06/16 00:54:30;;;;;;;5.30;4.05;;;409.70;2355.20;;;;;;5069932;28;20047;-55
2022/06/16 00:57:02;;;;;;;7.32;3.65;;;409.80;2355.20;;;;;;5069701;28;20036;-55
2022/06/16 00:59:28;;;;;;;5.22;3.88;;;409.80;2355.20;;;;;;5070488;28;20057;-54
2022/06/16 01:01:54;;;;;;;5.15;3.83;;;409.80;2355.20;;;;;;5074006;28;20082;-54
2022/06/16 01:07:08;;;;;;;6.78;4.30;;;409.70;2355.20;;;;;;5073665;28;20498;-54
2022/06/16 01:09:35;;;;;;;6.97;3.53;;;409.70;2355.20;;;;;;5073600;28;20470;-55
2022/06/16 01:15:48;;;;;;;5.50;3.60;;;409.70;2355.20;;;;;;5073379;28;20035;-54
2022/06/16 01:18:17;;;;;;;5.55;3.72;;;384.90;2329.60;;;;;;5073541;28;20090;-54
2022/06/16 01:20:43;;;;;;;6.90;4.32;;;384.90;2329.60;;;;;;5073483;28;20374;-54
2022/06/16 01:23:27;;;;;;;5.05;3.75;;;384.90;2329.60;;;;;;5073338;28;20031;-54
2022/06/16 01:25:59;;;;;;;8.60;3.83;;;384.90;2329.60;;;;;;5073428;28;20031;-54
2022/06/16 01:28:50;;;;;;;6.72;3.60;;;409.60;2355.20;;;;;;5073063;28;20123;-54
2022/06/16 01:31:32;;;;;;;5.72;4.05;;;384.90;2329.60;;;;;;5073210;28;20491;-55
2022/06/16 01:34:17;;;;;;;8.07;4.38;;;384.90;2329.60;;;;;;5072987;28;20112;-54
2022/06/16 01:37:02;;;;;;;5.97;3.90;;;384.90;2329.60;;;;;;5073096;28;20074;-55
2022/06/16 01:39:27;;;;;;;6.05;3.83;;;384.90;2329.60;;;;;;5072760;28;20055;-54
2022/06/16 01:42:09;;;;;;;7.40;3.95;;;384.90;2329.60;;;;;;5073091;28;20032;-53
2022/06/16 01:44:42;;;;;;;6.28;4.40;;;384.90;2329.60;;;;;;5073125;28;20031;-54
2022/06/16 01:47:17;;;;;;;4.97;3.85;;;384.90;2329.60;;;;;;5072752;28;20403;-54
2022/06/16 01:49:48;;;;;;;5.80;3.70;;;384.90;2329.60;;;;;;5072668;28;20036;-55
2022/06/16 01:52:24;;;;;;;6.97;4.13;;;384.80;2329.60;;;;;;5073102;28;20047;-54
2022/06/16 01:55:07;;;;;;;4.20;3.03;;;384.70;2329.60;;;;;;5072795;28;20033;-54
2022/06/16 01:57:50;;;;;;;4.50;3.35;;;384.70;2329.60;;;;;;5072527;28;20555;-54
2022/06/16 02:00:20;;;;;;;7.72;4.03;;;384.70;2329.60;;;;;;5072720;28;20407;-54
2022/06/16 02:03:08;;;;;;;4.88;3.50;;;384.70;2329.60;;;;;;5072653;28;20020;-54
2022/06/16 02:05:52;;;;;;;5.40;4.10;;;384.60;2329.60;;;;;;5071837;28;20071;-54
2022/06/16 02:08:28;;;;;;;8.05;4.07;;;384.60;2329.60;;;;;;5072111;28;20069;-55
2022/06/16 02:11:03;;;;;;;7.72;4.07;;;384.60;2329.60;;;;;;5072376;28;20032;-54
2022/06/16 02:13:34;;;;;;;6.03;3.67;;;384.60;2329.60;;;;;;5072364;28;20020;-55
2022/06/16 02:16:13;;;;;;;7.97;4.45;;;384.60;2329.60;;;;;;5072102;28;20021;-54
2022/06/16 02:18:41;;;;;;;5.63;3.78;;;384.60;2329.60;;;;;;5072244;28;20490;-54
2022/06/16 02:21:26;;;;;;;6.43;4.15;;;384.50;2329.60;;;;;;5072413;28;20024;-54
2022/06/16 02:23:52;;;;;;;6.80;4.18;;;384.50;2329.60;;;;;;5072067;28;20467;-55
2022/06/16 02:26:17;;;;;;;4.97;3.72;;;384.40;2329.60;;;;;;5072014;28;20028;-55
2022/06/16 02:28:55;;;;;;;6.07;4.47;;;384.30;2329.60;;;;;;5072168;28;20131;-55
2022/06/16 02:31:46;;;;;;;6.35;3.40;;;384.30;2329.60;;;;;;5072076;28;20039;-54
2022/06/16 02:34:15;;;;;;;6.43;4.35;;;384.30;2329.60;;;;;;5072139;28;20025;-55
2022/06/16 02:37:08;;;;;;;7.72;4.60;;;384.30;2329.60;;;;;;5072218;28;20378;-55
2022/06/16 02:40:18;;;;;;;5.80;4.15;;;384.30;2329.60;;;;;;5071909;28;20031;-54
2022/06/16 02:43:08;;;;;;;7.20;4.53;;;384.30;2329.60;;;;;;4971036;28;20034;-55
2022/06/16 02:45:34;;;;;;;7.43;4.55;;;384.30;2329.60;;;;;;4971143;28;20031;-53
2022/06/16 02:48:06;;;;;;;5.88;3.97;;;384.20;2329.60;;;;;;4970763;28;20057;-55
2022/06/16 02:50:46;;;;;;;6.78;4.40;;;384.30;2329.60;;;;;;4970812;28;20170;-54
2022/06/16 02:56:42;;;;;;;6.30;3.85;;;384.30;2329.60;;;;;;4970884;28;20035;-55
2022/06/16 02:59:14;;;;;;;5.75;4.28;;;384.20;2329.60;;;;;;4970465;28;20106;-55
2022/06/16 03:01:40;;;;;;;6.45;3.97;;;384.30;2329.60;;;;;;4970514;28;20513;-55
2022/06/16 03:04:08;;;;;;;8.80;3.90;;;384.30;2329.60;;;;;;4970716;28;20039;-54
2022/06/16 03:06:34;;;;;;;6.07;4.25;;;384.30;2329.60;;;;;;4970656;28;20514;-54
2022/06/16 03:09:01;;;;;;;7.25;4.40;;;384.30;2329.60;;;;;;4970357;28;20508;-55
2022/06/16 03:11:27;;;;;;;7.40;4.70;;;384.30;2329.60;;;;;;4970639;28;20508;-55
2022/06/16 03:13:54;;;;;;;6.95;4.55;;;384.30;2329.60;;;;;;4970642;28;20046;-54
2022/06/16 03:16:20;;;;;;;9.52;4.35;;;384.40;2329.60;;;;;;4953790;28;20027;-54
2022/06/16 03:18:46;;;;;;;5.15;4.05;;;384.50;2329.60;;;;;;5001488;28;20028;-55
2022/06/16 03:21:12;;;;;;;5.93;4.03;;;384.60;2329.60;;;;;;5071164;28;20052;-52
2022/06/16 03:23:37;;;;;;;6.85;5.43;;;384.60;2329.60;;;;;;5070578;28;20055;-56
2022/06/16 03:26:03;;;;;;;8.73;4.75;;;384.60;2329.60;;;;;;5071093;28;20100;-55
2022/06/16 03:28:29;;;;;;;7.93;4.03;;;384.60;2329.60;;;;;;5070528;28;20040;-54
2022/06/16 03:30:55;;;;;;;7.05;4.72;;;384.60;2329.60;;;;;;5070696;28;20383;-54
2022/06/16 03:33:21;;;;;;;6.97;3.92;;;384.70;2329.60;;;;;;5070697;28;20127;-54
2022/06/16 03:35:46;;;;;;;5.55;4.18;;;384.70;2329.60;;;;;;5070834;28;20025;-54
2022/06/16 03:40:49;;;;;;;4.82;4.18;;;384.90;2329.60;;;;;;5070676;28;20028;-54
2022/06/16 03:43:15;;;;;;;5.43;4.13;;;384.90;2329.60;;;;;;5070735;28;20028;-54
2022/06/16 03:45:40;;;;;;;8.15;4.68;;;384.90;2329.60;;;;;;5070628;28;20025;-54
2022/06/16 03:48:06;;;;;;;5.75;4.57;;;409.60;2355.20;;;;;;5070777;28;20032;-54
2022/06/16 03:50:32;;;;;;;5.35;3.70;;;409.60;2355.20;;;;;;5070615;28;20059;-54
2022/06/16 03:52:58;;;;;;;7.00;4.50;;;409.70;2355.20;;;;;;5070287;28;20022;-55
2022/06/16 03:55:24;;;;;;;6.75;3.88;;;409.80;2355.20;;;;;;5070365;28;20025;-55
2022/06/16 03:57:51;;;;;;;5.43;4.10;;;409.90;2355.20;;;;;;5070070;28;20104;-55
2022/06/16 04:00:19;;;;;;;7.82;3.88;;;409.90;2355.20;;;;;;5070445;28;20040;-54
2022/06/16 04:02:45;;;;;;;5.60;4.07;;;409.90;2355.20;;;;;;5070539;28;20024;-55
2022/06/16 04:05:11;;;;;;;9.00;4.57;;;410.00;2355.20;;;;;;5070074;28;20522;-54
2022/06/16 04:07:37;;;;;;;6.70;3.97;;;410.10;2355.20;;;;;;5070214;28;20178;-55
2022/06/16 04:10:04;;;;;;;4.70;3.70;;;410.20;2355.20;;;;;;5070347;28;20032;-55
2022/06/16 04:12:30;;;;;;;5.65;3.95;;;410.30;2355.20;;;;;;5070109;28;20061;-54
2022/06/16 04:14:56;;;;;;;5.15;3.85;;;410.30;2355.20;;;;;;5070313;28;20103;-54
2022/06/16 04:17:22;;;;;;;7.05;4.57;;;410.50;2355.20;;;;;;5070240;28;20032;-55
2022/06/16 04:22:34;;;;;;;4.30;3.63;;;435.20;2355.20;;;;;;5008756;28;20072;-54
2022/06/16 04:25:00;;;;;;;7.00;4.10;;;435.40;2355.20;;;;;;5001896;28;20038;-54
2022/06/16 04:27:26;;;;;;;6.85;3.85;;;435.50;2355.20;;;;;;4997556;28;20073;-53
2022/06/16 04:29:52;;;;;;;6.28;4.47;;;435.60;2355.20;;;;;;4999074;28;20022;-53
2022/06/16 04:32:18;;;;;;;5.32;3.95;;;512.00;2380.80;;;;;;4996962;28;20026;-55
2022/06/16 04:34:44;;;;;;;5.88;4.28;;;640.50;1766.40;;;;;;4996455;28;20030;-55
2022/06/16 04:37:11;;;;;;;6.75;4.35;;;717.60;1510.40;;;;;;4998661;28;20029;-54
2022/06/16 04:39:37;;;;;;;5.28;4.63;;;768.60;1356.80;;;;;;4998503;28;20034;-55
2022/06/16 04:42:03;;;;;;;8.25;4.95;;;819.50;1254.40;;;;;;4997727;28;20026;-54
2022/06/16 04:44:30;;;;;;;6.05;4.78;;;820.10;1203.20;;;;;;4996946;28;20028;-55
2022/06/16 04:46:55;;;;;;;7.30;4.20;;;845.20;1203.20;;;;;;4998722;28;20586;-54
2022/06/16 04:49:21;;;;;;;4.95;4.50;;;845.50;1177.60;;;;;;4997242;28;20030;-55
2022/06/16 04:51:47;;;;;;;8.57;5.43;;;870.40;1152.00;;;;;;4998711;28;20062;-54
2022/06/16 04:54:13;;;;;;;6.88;4.82;;;896.00;1100.80;;;;;;4996782;28;20034;-55
2022/06/16 04:56:39;;;;;;;7.43;5.63;;;896.00;1100.80;;;;;;4998342;28;20014;-55
2022/06/16 04:59:04;;;;;;;5.63;4.35;;;921.80;1049.60;;;;;;5010245;28;20099;-54
2022/06/16 05:01:30;;;;;;;7.45;5.70;;;922.50;1024.00;;;;;;5047742;28;20029;-54
2022/06/16 05:03:56;;;;;;;6.00;5.18;;;973.00;998.40;;;;;;5047027;28;20041;-55
2022/06/16 05:06:21;;;;;;;6.35;5.55;;;973.30;972.80;;;;;;5048258;28;20024;-55
2022/06/16 05:08:48;;;;;;;6.53;5.80;;;948.00;998.40;;;;;;5047646;28;20114;-56
2022/06/16 05:11:14;;;;;;;6.20;5.60;;;947.60;998.40;;;;;;5049329;28;20036;-55
2022/06/16 05:13:40;;;;;;;6.57;5.78;;;947.70;998.40;;;;;;5049503;28;20029;-56
2022/06/16 05:16:06;;;;;;;6.43;5.82;;;973.30;972.80;;;;;;5049671;28;20029;-55
2022/06/16 05:18:32;;;;;;;5.38;4.90;;;1024.10;947.20;;;;;;5049908;28;20028;-56
2022/06/16 05:21:09;;;;;;;8.90;6.03;;;999.30;947.20;;;;;;5049337;28;20033;-55
2022/06/16 05:23:35;;;;;;;7.82;6.10;;;1049.90;921.60;;;;;;5049704;28;20059;-55
2022/06/16 05:26:01;;;;;;;6.10;5.60;;;1049.60;947.20;;;;;;5049319;28;20025;-56
2022/06/16 05:28:27;;;;;;;6.78;6.20;;;1075.30;870.40;;;;;;5049075;28;20553;-56
2022/06/16 05:30:53;;;;;;;7.00;6.40;;;1075.40;896.00;;;;;;5049588;28;20033;-56
2022/06/16 05:33:18;;;;;;;6.95;6.43;;;1075.50;870.40;;;;;;5049507;28;20033;-56
2022/06/16 05:35:55;;;;;;;8.60;6.97;;;1075.50;870.40;;;;;;5049341;28;20021;-57
2022/06/16 05:38:21;;;;;;;8.02;7.40;;;1075.70;844.80;;;;;;5049327;28;20112;-56
2022/06/16 05:40:46;;;;;;;8.48;6.90;;;1075.60;844.80;;;;;;5049205;28;20464;-57
2022/06/16 05:43:12;;;;;;;8.35;7.60;;;1126.50;844.80;;;;;;5049385;28;20125;-56
2022/06/16 05:45:38;;;;;;;10.23;9.32;;;1126.90;819.20;;;;;;5050796;28;20021;-56
2022/06/16 05:48:04;;;;;;;8.95;8.23;;;1126.90;819.20;;;;;;5053029;28;20037;-54
2022/06/16 05:50:29;;;;;;;8.13;7.47;;;1127.10;793.60;;;;;;5052782;28;20028;-57
2022/06/16 05:52:55;;;;;;;9.48;8.60;;;1126.60;844.80;;;;;;5052933;28;20021;-56
2022/06/16 05:55:21;;;;;;;10.13;8.35;;;1152.50;793.60;;;;;;5052567;28;20032;-56
2022/06/16 05:57:47;;;;;;;13.38;9.85;;;1152.20;793.60;;;;;;5052424;28;20390;-57
2022/06/16 06:00:13;;;;;;;12.88;10.27;;;1177.60;768.00;;;;;;5052748;28;20499;-57
2022/06/16 06:02:39;;;;;;;12.82;11.13;;;1203.30;742.40;;;;;;5052664;28;20060;-57
2022/06/16 06:05:06;;;;;;;10.05;9.10;;;1203.40;742.40;;;;;;5052659;28;20463;-57
2022/06/16 06:16:25;;;;;;;11.48;10.55;;;1152.40;793.60;;;;;;5052602;28;20033;-57
2022/06/16 06:18:22;;;;;;;11.18;10.18;;;1178.10;742.40;;;;;;5052743;28;20051;-57
2022/06/16 06:20:48;;;;;;;11.52;10.60;;;1203.60;742.40;;;;;;5051986;28;20013;-57
2022/06/16 06:23:14;;;;;;;12.05;10.85;;;1203.60;742.40;;;;;;5052688;28;20029;-56
2022/06/16 06:25:40;;;;;;;13.55;11.15;;;1152.20;793.60;;;;;;5052204;28;20403;-57
2022/06/16 06:28:06;;;;;;;12.18;10.32;;;1152.10;793.60;;;;;;5052225;28;20115;-56
2022/06/16 06:30:34;;;;;;;9.80;8.90;;;1152.00;819.20;;;;;;5052266;28;20033;-56
2022/06/16 06:33:02;;;;;;;10.52;9.50;;;1152.00;819.20;;;;;;5051918;28;20064;-56
2022/06/16 06:35:28;;;;;;;10.30;9.27;;;1127.30;819.20;;;;;;5051808;28;20052;-58
2022/06/16 06:37:53;;;;;;;12.20;10.77;;;1075.60;870.40;;;;;;5052278;28;20025;-56
2022/06/16 06:40:26;;;;;;;11.13;10.13;;;1024.30;921.60;;;;;;5051793;28;20155;-57
2022/06/16 06:42:51;;;;;;;;;;;1075.60;844.80;;;;;;5052639;28;20032;-56
2022/06/16 06:45:18;;;;;;;11.90;11.00;;;1152.20;793.60;;;;;;5051840;28;20370;-57
2022/06/16 06:47:45;;;;;;;10.93;9.93;;;1152.10;819.20;;;;;;5051814;28;20048;-56
2022/06/16 06:50:35;;;;;;;12.00;10.88;;;1126.60;844.80;;;;;;5051670;28;20147;-56
2022/06/16 06:53:01;;;;;;;12.93;11.43;;;1075.90;844.80;;;;;;5051637;28;20387;-57
2022/06/16 06:55:28;;;;;;;12.20;11.10;;;1075.40;870.40;;;;;;5050792;28;20033;-57
2022/06/16 06:57:54;;;;;;;12.40;11.30;;;1101.20;844.80;;;;;;5051445;28;20068;-57
2022/06/16 07:00:23;;;;;;;11.27;9.98;;;1126.40;844.80;;;;;;5071420;28;20035;-57
2022/06/16 07:02:48;;;;;;;12.20;11.15;;;1101.10;844.80;;;;;;5071304;28;20036;-57
2022/06/16 07:05:14;;;;;;;13.10;11.88;;;1126.70;844.80;;;;;;5071481;28;20456;-57
2022/06/16 07:07:40;;;;;;;11.27;10.30;;;1101.50;844.80;;;;;;5071126;28;20070;-57
2022/06/16 07:10:08;;;;;;;10.25;9.45;;;1126.60;844.80;;;;;;5071365;28;20027;-56
2022/06/16 07:12:35;;;;;;;11.55;10.45;;;1101.10;844.80;;;;;;5071419;28;20063;-57
2022/06/16 07:15:01;;;;;;;10.85;9.75;;;1101.20;844.80;;;;;;5071104;28;20436;-57
2022/06/16 07:17:27;;;;;;;12.88;11.55;;;1126.40;844.80;;;;;;5071361;28;20647;-56
2022/06/16 07:19:54;;;;;;;10.88;9.95;;;1101.70;819.20;;;;;;5071197;28;20455;-56
2022/06/16 07:22:20;;;;;;;11.43;10.35;;;1177.70;768.00;;;;;;5071153;28;20021;-56
2022/06/16 07:24:48;;;;;;;10.70;9.90;;;1177.60;768.00;;;;;;5071112;28;20460;-57
2022/06/16 07:27:16;;;;;;;10.13;9.43;;;1152.20;768.00;;;;;;5070966;28;20387;-57
2022/06/16 07:29:42;;;;;;;13.23;10.25;;;1178.30;742.40;;;;;;5071176;28;20047;-57
2022/06/16 07:32:08;;;;;;;10.93;10.13;;;1203.30;742.40;;;;;;5052655;28;20033;-56
2022/06/16 07:34:33;;;;;;;12.73;10.23;;;1127.30;793.60;;;;;;5071087;28;20061;-57
2022/06/16 07:36:59;;;;;;;10.85;9.43;;;1126.80;793.60;;;;;;5070733;28;20027;-57
2022/06/16 07:39:25;;;;;;;10.45;9.65;;;1126.80;793.60;;;;;;5070716;28;20474;-57
2022/06/16 07:41:50;;;;;;;11.05;10.18;;;1178.10;716.80;;;;;;5070518;28;20020;-57
2022/06/16 07:44:16;;;;;;;12.85;11.50;;;1203.60;716.80;;;;;;5070561;28;20028;-57
2022/06/16 07:46:44;;;;;;;11.30;10.20;;;1228.90;716.80;;;;;;5070567;28;20111;-57
2022/06/16 07:49:12;;;;;;;10.85;9.85;;;1177.80;742.40;;;;;;5070371;28;20359;-57
2022/06/16 07:51:40;;;;;;;11.88;10.60;;;1127.10;793.60;;;;;;5070550;28;20047;-57
2022/06/16 07:54:06;;;;;;;12.85;11.65;;;1152.50;768.00;;;;;;5070525;28;20104;-57
2022/06/16 07:56:32;;;;;;;10.95;9.98;;;1203.40;716.80;;;;;;5070348;28;20020;-57
2022/06/16 07:58:57;;;;;;;11.05;10.00;;;1177.70;742.40;;;;;;5070087;28;20044;-57
2022/06/16 08:01:23;;;;;;;9.05;8.38;;;1152.20;742.40;;;;;;5070365;28;20033;-57
2022/06/16 08:03:49;;;;;;;9.82;8.85;;;1152.40;716.80;;;;;;5069881;28;20023;-57
2022/06/16 08:06:18;;;;;;;9.48;8.68;;;1126.60;768.00;;;;;;5070363;28;20059;-57
2022/06/16 08:08:45;;;;;;;9.57;8.98;;;1127.30;742.40;;;;;;5069880;28;20037;-57
2022/06/16 08:12:03;;;;;;;8.95;8.18;;;1101.70;742.40;;;;;;5070310;28;20490;-57
2022/06/16 08:13:58;;;;;;;8.45;7.72;;;1050.00;793.60;;;;;;5069925;28;20043;-57
2022/06/16 08:16:24;;;;;;;6.35;5.82;;;973.30;844.80;;;;;;5070165;28;20024;-56
2022/06/16 08:18:50;;;;;;;4.93;4.20;;;922.30;896.00;;;;;;5070132;28;20047;-56
2022/06/16 08:21:17;;;;;;;4.70;4.13;;;871.30;870.40;;;;;;5070335;28;20021;-56
2022/06/16 08:23:43;;;;;;;5.00;3.88;;;871.10;921.60;;;;;;5070029;28;20028;-56
2022/06/16 08:26:10;;;;;;;4.13;3.45;;;871.10;896.00;;;;;;5069978;28;20036;-56
2022/06/16 08:28:38;;;;;;;4.60;4.20;;;845.60;896.00;;;;;;5070370;28;20032;-56
2022/06/16 08:31:05;;;;;;;4.47;3.55;;;845.00;972.80;;;;;;5069938;28;20028;-56
2022/06/16 08:33:31;;;;;;;6.03;4.25;;;820.10;972.80;;;;;;5069792;28;20052;-56
2022/06/16 08:35:57;;;;;;;6.63;4.15;;;820.10;1024.00;;;;;;5069759;28;20029;-56
2022/06/16 08:38:23;;;;;;;6.80;4.07;;;819.80;1024.00;;;;;;5069859;28;20029;-56
2022/06/16 08:41:11;;;;;;;4.38;3.53;;;819.50;1049.60;;;;;;5069797;28;20024;-56
2022/06/16 08:43:46;;;;;;;4.65;3.60;;;819.20;1049.60;;;;;;5069561;28;20032;-57
2022/06/16 08:46:16;;;;;;;5.78;3.75;;;794.00;1100.80;;;;;;5069946;28;20024;-55
2022/06/16 08:48:58;;;;;;;3.92;3.50;;;793.60;1100.80;;;;;;5069789;28;20094;-56
2022/06/16 08:52:04;;;;;;;6.18;3.67;;;794.00;1100.80;;;;;;5069728;28;20562;-56
2022/06/16 08:54:33;;;;;;;5.13;3.33;;;793.70;1126.40;;;;;;5069749;28;20040;-55
2022/06/16 08:57:10;;;;;;;5.47;3.70;;;768.90;1126.40;;;;;;5069398;28;20049;-56
2022/06/16 08:59:48;;;;;;;5.88;3.63;;;768.30;1100.80;;;;;;5069401;28;20053;-56
2022/06/16 09:02:50;;;;;;;5.68;3.85;;;793.70;1126.40;;;;;;5069730;28;20048;-56
2022/06/16 09:05:51;;;;;;;6.13;4.37;;;793.70;1126.40;;;;;;5069579;28;20020;-56
2022/06/16 09:08:31;;;;;;;3.97;3.40;;;768.00;1126.40;;;;;;4968543;28;20074;-56
2022/06/16 09:11:25;;;;;;;5.90;3.33;;;768.80;1126.40;;;;;;4968503;28;20043;-56
2022/06/16 09:13:54;;;;;;;;;;;794.00;1177.60;;;;;;4968939;28;20531;-56
2022/06/16 09:16:45;;;;;;;4.18;3.22;;;793.90;1203.20;;;;;;4968557;28;19953;-56
2022/06/16 09:19:23;;;;;;;4.30;3.65;;;793.70;1152.00;;;;;;4968452;28;20077;-56
2022/06/16 09:22:01;;;;;;;6.20;4.90;;;793.80;1152.00;;;;;;4971744;28;20034;-56
2022/06/16 09:24:52;;;;;;;4.13;3.67;;;768.90;1126.40;;;;;;4972193;28;20456;-57
2022/06/16 09:27:56;;;;;;;5.13;3.45;;;793.70;1126.40;;;;;;4972120;28;20151;-56
2022/06/16 09:30:27;;;;;;;6.60;3.80;;;768.20;1152.00;;;;;;4971879;28;20042;-56
2022/06/16 09:32:58;;;;;;;5.22;4.32;;;743.00;1203.20;;;;;;4972647;28;20438;-55
2022/06/16 09:35:42;;;;;;;5.40;3.85;;;743.20;1203.20;;;;;;4972193;28;20026;-56
2022/06/16 09:38:23;;;;;;;4.32;3.72;;;768.10;1177.60;;;;;;4971960;28;20038;-56
2022/06/16 09:41:04;;;;;;;9.77;3.85;;;768.60;1177.60;;;;;;4971882;28;20085;-56
2022/06/16 09:43:41;;;;;;;6.65;3.50;;;768.60;1177.60;;;;;;4971912;28;20057;-56
2022/06/16 09:46:19;;;;;;;4.57;3.63;;;768.90;1203.20;;;;;;5056892;28;20040;-56
2022/06/16 09:48:53;;;;;;;8.10;3.53;;;768.60;1177.60;;;;;;5072736;28;20127;-56
2022/06/16 09:51:31;;;;;;;6.10;3.90;;;768.40;1228.80;;;;;;5072579;28;20063;-55
2022/06/16 09:54:16;;;;;;;4.45;4.05;;;743.30;1228.80;;;;;;5073005;28;20124;-56
2022/06/16 09:57:14;;;;;;;4.20;3.80;;;743.10;1254.40;;;;;;5071705;28;20046;-54
2022/06/16 10:00:15;;;;;;;6.60;4.47;;;743.00;1228.80;;;;;;4971571;28;20066;-55
2022/06/16 10:02:52;;;;;;;6.20;4.25;;;742.90;1228.80;;;;;;4895541;29;20108;-56
2022/06/16 10:05:37;;;;;;;5.43;3.47;;;743.00;1254.40;;;;;;4895256;29;20037;-56
2022/06/16 10:08:14;;;;;;;6.65;4.43;;;743.10;1254.40;;;;;;4894820;29;20037;-56
2022/06/16 10:10:50;;;;;;;6.38;3.90;;;742.80;1280.00;;;;;;4894347;29;20036;-54
2022/06/16 10:13:36;;;;;;;5.47;4.57;;;742.60;1305.60;;;;;;4894891;29;20075;-58
2022/06/16 10:16:19;;;;;;;6.90;4.03;;;742.60;1305.60;;;;;;4892718;29;20128;-55
2022/06/16 10:18:47;;;;;;;6.20;4.00;;;742.60;1305.60;;;;;;4895384;29;20391;-56
2022/06/16 10:21:13;;;;;;;7.22;3.95;;;742.50;1331.20;;;;;;4895413;29;20073;-56
2022/06/16 10:23:49;;;;;;;4.68;4.07;;;742.40;1331.20;;;;;;4895313;29;20043;-55
2022/06/16 10:26:15;;;;;;;5.43;4.03;;;717.40;1331.20;;;;;;4895306;29;20380;-55
2022/06/16 10:28:59;;;;;;;6.05;4.20;;;717.70;1331.20;;;;;;4894901;29;20058;-56
2022/06/16 10:31:46;;;;;;;4.93;4.18;;;742.60;1331.20;;;;;;4895046;29;20037;-56
2022/06/16 10:34:39;;;;;;;8.27;4.20;;;742.90;1331.20;;;;;;4895075;29;20040;-56
2022/06/16 10:37:19;;;;;;;6.32;4.15;;;743.00;1305.60;;;;;;5033428;28;20032;-55
2022/06/16 10:39:55;;;;;;;6.25;3.85;;;742.50;1305.60;;;;;;5072111;28;20050;-56
2022/06/16 10:42:26;;;;;;;4.43;3.72;;;742.40;1331.20;;;;;;5069323;28;20020;-56
2022/06/16 10:45:06;;;;;;;6.40;4.00;;;742.50;1331.20;;;;;;5071791;28;20024;-55
2022/06/16 10:47:39;;;;;;;4.57;3.90;;;717.50;1305.60;;;;;;5069094;28;20044;-54
2022/06/16 10:50:06;;;;;;;6.18;3.85;;;717.50;1280.00;;;;;;5071372;28;20107;-54
2022/06/16 10:52:40;;;;;;;5.43;3.95;;;717.70;1305.60;;;;;;5071482;28;20025;-55
2022/06/16 10:55:08;;;;;;;4.25;3.78;;;717.50;1280.00;;;;;;5071337;28;20040;-55
2022/06/16 10:57:43;;;;;;;5.28;3.47;;;742.40;1280.00;;;;;;5069655;28;20021;-55
2022/06/16 11:00:13;;;;;;;4.80;4.28;;;742.50;1305.60;;;;;;5069098;28;20392;-56
2022/06/16 11:02:59;;;;;;;4.05;3.53;;;742.50;1305.60;;;;;;5071245;28;20020;-56
2022/06/16 11:05:26;;;;;;;4.00;3.42;;;742.50;1254.40;;;;;;5070592;28;20017;-55
2022/06/16 11:07:52;;;;;;;6.13;4.80;;;742.40;1280.00;;;;;;5070716;28;20029;-56
2022/06/16 11:10:32;;;;;;;6.10;3.90;;;717.50;1254.40;;;;;;5070788;28;20147;-56
2022/06/16 11:12:58;;;;;;;5.93;4.07;;;742.40;1305.60;;;;;;5070995;28;20032;-55
2022/06/16 11:15:35;;;;;;;4.82;3.67;;;742.40;1280.00;;;;;;5071211;28;20033;-55
2022/06/16 11:18:04;;;;;;;6.05;3.53;;;742.40;1305.60;;;;;;5071167;28;20056;-56
2022/06/16 11:20:36;;;;;;;4.35;3.92;;;742.40;1305.60;;;;;;5071146;28;20101;-56
2022/06/16 11:23:26;;;;;;;7.40;3.88;;;742.40;1305.60;;;;;;5070866;28;20021;-55
2022/06/16 11:25:59;;;;;;;6.88;4.40;;;742.40;1305.60;;;;;;5068624;28;20029;-55
2022/06/16 11:28:27;;;;;;;5.35;3.70;;;742.50;1331.20;;;;;;5071140;28;20056;-56
2022/06/16 11:30:58;;;;;;;10.63;3.72;;;742.50;1305.60;;;;;;5071230;28;20043;-55
2022/06/16 11:36:29;;;;;;;4.63;3.78;;;742.50;1305.60;;;;;;5071063;28;20036;-55
2022/06/16 11:39:18;;;;;;;4.95;3.45;;;742.40;1280.00;;;;;;5071163;28;20029;-56
2022/06/16 11:41:50;;;;;;;4.22;3.63;;;742.50;1305.60;;;;;;5070902;28;20441;-56
2022/06/16 11:44:37;;;;;;;4.95;3.72;;;717.70;1254.40;;;;;;5070250;28;20471;-56
2022/06/16 11:47:11;;;;;;;7.65;3.25;;;742.50;1305.60;;;;;;5070622;28;20048;-56
2022/06/16 11:50:03;;;;;;;6.07;3.70;;;742.60;1305.60;;;;;;5070309;28;20024;-56
2022/06/16 11:52:41;;;;;;;5.30;3.90;;;742.40;1254.40;;;;;;5070148;28;20023;-56
2022/06/16 11:55:38;;;;;;;5.15;3.90;;;742.50;1305.60;;;;;;5070252;28;20032;-56
2022/06/16 11:58:40;;;;;;;4.43;3.78;;;742.60;1254.40;;;;;;5070372;28;20448;-54
2022/06/16 12:01:17;;;;;;;3.75;3.35;;;742.50;1280.00;;;;;;5070298;28;20032;-56
2022/06/16 12:04:14;;;;;;;5.10;3.50;;;742.40;1254.40;;;;;;5070469;28;20016;-55
2022/06/16 12:07:18;;;;;;;6.93;3.50;;;742.40;1228.80;;;;;;5070115;28;20032;-56
2022/06/16 12:10:05;;;;;;;6.88;3.30;;;742.60;1305.60;;;;;;4969393;28;20039;-55
2022/06/16 12:12:57;;;;;;;4.18;3.55;;;742.50;1305.60;;;;;;4969269;28;20039;-56
2022/06/16 12:15:50;;;;;;;4.40;3.08;;;742.50;1280.00;;;;;;4969439;28;20039;-55
2022/06/16 12:18:41;;;;;;;5.30;3.95;;;742.50;1280.00;;;;;;4969390;28;20478;-56
2022/06/16 12:21:38;;;;;;;5.57;4.10;;;742.70;1305.60;;;;;;4892861;29;20523;-56
2022/06/16 12:24:15;;;;;;;5.32;3.47;;;742.60;1254.40;;;;;;4893200;29;20027;-55
2022/06/16 12:26:44;;;;;;;4.35;3.85;;;742.60;1254.40;;;;;;4893005;29;20075;-56
2022/06/16 12:29:33;;;;;;;4.13;3.65;;;742.80;1331.20;;;;;;4893013;29;20575;-55
2022/06/16 12:32:20;;;;;;;8.27;3.58;;;743.00;1280.00;;;;;;4892965;29;20056;-56
2022/06/16 12:35:03;;;;;;;4.22;3.70;;;743.00;1254.40;;;;;;4893189;29;20040;-56
2022/06/16 12:37:34;;;;;;;4.95;3.70;;;742.90;1254.40;;;;;;4891412;29;20052;-56
2022/06/16 12:40:13;;;;;;;5.50;3.90;;;742.90;1305.60;;;;;;4890977;29;20041;-55
2022/06/16 12:42:49;;;;;;;5.72;3.60;;;742.70;1280.00;;;;;;4891029;29;20365;-56
2022/06/16 12:45:21;;;;;;;5.15;3.67;;;742.60;1280.00;;;;;;4891021;29;20515;-57
2022/06/16 12:47:55;;;;;;;5.30;3.73;;;742.50;1305.60;;;;;;4958452;28;20484;-56
2022/06/16 12:50:31;;;;;;;4.70;4.00;;;742.60;1280.00;;;;;;4966590;28;20026;-56
2022/06/16 12:53:28;;;;;;;5.50;3.78;;;742.80;1280.00;;;;;;4967065;28;20034;-57
2022/06/16 12:56:04;;;;;;;4.28;3.60;;;742.80;1280.00;;;;;;4969101;28;20064;-56
2022/06/16 12:58:44;;;;;;;9.65;4.22;;;742.60;1228.80;;;;;;5036586;28;20085;-56
2022/06/16 13:01:11;;;;;;;6.30;3.33;;;742.70;1280.00;;;;;;5072139;28;20071;-59
2022/06/16 13:03:45;;;;;;;6.85;3.95;;;742.80;1280.00;;;;;;5071774;28;20103;-57
2022/06/16 13:06:13;;;;;;;5.20;3.50;;;742.60;1254.40;;;;;;5071899;28;20021;-60
2022/06/16 13:08:43;;;;;;;5.15;4.30;;;742.60;1254.40;;;;;;5071979;28;20040;-59